sensor_id;sensor_type;location;lat;lon;timestamp;pressure;altitude;pressure_sealevel;temperature;humidity
72330;BME280;69154;52.076;5.110;2023-07-13T00:02:07;101386.30;;;19.83;28.23
72330;BME280;69154;52.076;5.110;2023-07-13T00:04:32;101381.07;;;19.23;29.21
72330;BME280;69154;52.076;5.110;2023-07-13T00:06:57;101385.71;;;19.15;28.43
72330;BME280;69154;52.076;5.110;2023-07-13T00:09:22;101382.27;;;19.41;28.30
72330;BME280;69154;52.076;5.110;2023-07-13T00:11:51;101381.91;;;19.31;28.96
72330;BME280;69154;52.076;5.110;2023-07-13T00:14:13;101382.56;;;18.74;29.09
72330;BME280;69154;52.076;5.110;2023-07-13T00:16:39;101381.49;;;18.42;28.91
72330;BME280;69154;52.076;5.110;2023-07-13T00:19:03;101378.95;;;19.31;29.21
72330;BME280;69154;52.076;5.110;2023-07-13T00:21:28;101375.01;;;19.11;28.87
72330;BME280;69154;52.076;5.110;2023-07-13T00:23:53;101375.49;;;19.13;29.17
72330;BME280;69154;52.076;5.110;2023-07-13T00:26:18;101379.22;;;18.37;29.32
72330;BME280;69154;52.076;5.110;2023-07-13T00:28:43;101384.86;;;18.66;28.66
72330;BME280;69154;52.076;5.110;2023-07-13T00:31:08;101386.53;;;18.78;29.65
72330;BME280;69154;52.076;5.110;2023-07-13T00:33:33;101389.05;;;18.77;28.41
72330;BME280;69154;52.076;5.110;2023-07-13T00:35:58;101387.67;;;19.28;28.88
72330;BME280;69154;52.076;5.110;2023-07-13T00:38:23;101386.95;;;18.39;29.62
72330;BME280;69154;52.076;5.110;2023-07-13T00:40:48;101384.17;;;18.23;29.93
72330;BME280;69154;52.076;5.110;2023-07-13T00:43:15;101383.50;;;17.78;29.99
72330;BME280;69154;52.076;5.110;2023-07-13T00:46:15;101379.54;;;18.79;29.31
72330;BME280;69154;52.076;5.110;2023-07-13T00:48:04;101377.05;;;18.88;29.06
72330;BME280;69154;52.076;5.110;2023-07-13T00:50:28;101376.73;;;18.64;29.85
72330;BME280;69154;52.076;5.110;2023-07-13T00:52:55;101381.82;;;17.96;29.69
72330;BME280;69154;52.076;5.110;2023-07-13T00:55:21;101383.82;;;17.12;29.93
72330;BME280;69154;52.076;5.110;2023-07-13T00:57:44;101387.98;;;17.90;30.43
72330;BME280;69154;52.076;5.110;2023-07-13T01:00:10;101388.00;;;18.22;29.01
72330;BME280;69154;52.076;5.110;2023-07-13T01:02:35;101396.68;;;18.40;29.60
72330;BME280;69154;52.076;5.110;2023-07-13T01:04:59;101396.35;;;18.90;29.87
72330;BME280;69154;52.076;5.110;2023-07-13T01:07:24;101396.67;;;18.68;29.45
72330;BME280;69154;52.076;5.110;2023-07-13T01:09:49;101391.96;;;18.84;29.13
72330;BME280;69154;52.076;5.110;2023-07-13T01:12:14;101395.96;;;17.92;29.60
72330;BME280;69154;52.076;5.110;2023-07-13T01:14:39;101397.63;;;18.77;29.37
72330;BME280;69154;52.076;5.110;2023-07-13T01:17:04;101398.83;;;18.82;29.67
72330;BME280;69154;52.076;5.110;2023-07-13T01:19:35;101398.18;;;17.96;29.28
72330;BME280;69154;52.076;5.110;2023-07-13T01:21:54;101395.85;;;18.28;29.45
72330;BME280;69154;52.076;5.110;2023-07-13T01:24:20;101393.16;;;18.04;29.49
72330;BME280;69154;52.076;5.110;2023-07-13T01:26:44;101396.73;;;18.19;30.33
72330;BME280;69154;52.076;5.110;2023-07-13T01:29:10;101399.87;;;17.90;30.78
72330;BME280;69154;52.076;5.110;2023-07-13T01:31:35;101396.80;;;16.66;31.86
72330;BME280;69154;52.076;5.110;2023-07-13T01:34:00;101401.76;;;17.72;31.24
72330;BME280;69154;52.076;5.110;2023-07-13T01:36:25;101403.40;;;18.10;30.82
72330;BME280;69154;52.076;5.110;2023-07-13T01:38:51;101402.32;;;17.21;31.25
72330;BME280;69154;52.076;5.110;2023-07-13T01:41:15;101405.16;;;17.15;31.33
72330;BME280;69154;52.076;5.110;2023-07-13T01:43:40;101407.34;;;18.46;30.40
72330;BME280;69154;52.076;5.110;2023-07-13T01:46:05;101406.78;;;17.61;31.20
72330;BME280;69154;52.076;5.110;2023-07-13T01:48:31;101409.93;;;17.86;30.65
72330;BME280;69154;52.076;5.110;2023-07-13T01:50:56;101410.44;;;17.89;31.12
72330;BME280;69154;52.076;5.110;2023-07-13T01:53:21;101414.45;;;17.23;32.13
72330;BME280;69154;52.076;5.110;2023-07-13T01:55:46;101414.86;;;18.18;30.81
72330;BME280;69154;52.076;5.110;2023-07-13T01:58:11;101409.98;;;16.96;32.29
72330;BME280;69154;52.076;5.110;2023-07-13T02:00:36;101413.21;;;17.32;31.41
72330;BME280;69154;52.076;5.110;2023-07-13T02:03:01;101414.21;;;17.84;31.48
72330;BME280;69154;52.076;5.110;2023-07-13T02:05:26;101414.80;;;17.91;31.32
72330;BME280;69154;52.076;5.110;2023-07-13T02:07:52;101409.88;;;17.44;32.19
72330;BME280;69154;52.076;5.110;2023-07-13T02:10:17;101411.70;;;16.20;32.93
72330;BME280;69154;52.076;5.110;2023-07-13T02:12:42;101415.02;;;17.63;31.78
72330;BME280;69154;52.076;5.110;2023-07-13T02:15:09;101421.88;;;17.14;32.61
72330;BME280;69154;52.076;5.110;2023-07-13T02:17:33;101422.88;;;16.82;31.90
72330;BME280;69154;52.076;5.110;2023-07-13T02:19:58;101424.78;;;16.80;33.02
72330;BME280;69154;52.076;5.110;2023-07-13T02:22:23;101418.99;;;16.68;32.55
72330;BME280;69154;52.076;5.110;2023-07-13T02:24:48;101419.45;;;16.53;32.90
72330;BME280;69154;52.076;5.110;2023-07-13T02:27:13;101421.35;;;17.13;32.13
72330;BME280;69154;52.076;5.110;2023-07-13T02:29:38;101421.10;;;16.73;32.40
72330;BME280;69154;52.076;5.110;2023-07-13T02:32:04;101419.97;;;17.40;32.46
72330;BME280;69154;52.076;5.110;2023-07-13T02:34:30;101424.88;;;17.54;32.11
72330;BME280;69154;52.076;5.110;2023-07-13T02:36:54;101424.86;;;17.62;31.78
72330;BME280;69154;52.076;5.110;2023-07-13T02:39:19;101421.65;;;17.14;32.25
72330;BME280;69154;52.076;5.110;2023-07-13T02:41:44;101423.58;;;17.90;32.29
72330;BME280;69154;52.076;5.110;2023-07-13T02:44:09;101425.94;;;16.85;32.28
72330;BME280;69154;52.076;5.110;2023-07-13T02:46:36;101427.88;;;17.82;31.90
72330;BME280;69154;52.076;5.110;2023-07-13T02:48:59;101424.55;;;17.53;31.88
72330;BME280;69154;52.076;5.110;2023-07-13T02:51:24;101428.99;;;18.37;31.19
72330;BME280;69154;52.076;5.110;2023-07-13T02:53:49;101429.08;;;18.30;31.22
72330;BME280;69154;52.076;5.110;2023-07-13T02:56:14;101426.93;;;17.98;30.74
72330;BME280;69154;52.076;5.110;2023-07-13T02:58:40;101426.78;;;18.30;30.99
72330;BME280;69154;52.076;5.110;2023-07-13T03:01:07;101422.87;;;17.86;30.85
72330;BME280;69154;52.076;5.110;2023-07-13T03:03:30;101424.29;;;18.59;30.28
72330;BME280;69154;52.076;5.110;2023-07-13T03:05:59;101424.28;;;19.26;30.10
72330;BME280;69154;52.076;5.110;2023-07-13T03:08:20;101431.25;;;17.55;30.36
72330;BME280;69154;52.076;5.110;2023-07-13T03:10:45;101433.36;;;18.33;30.90
72330;BME280;69154;52.076;5.110;2023-07-13T03:13:10;101435.28;;;18.36;30.30
72330;BME280;69154;52.076;5.110;2023-07-13T03:15:36;101433.68;;;18.41;30.44
72330;BME280;69154;52.076;5.110;2023-07-13T03:18:02;101433.34;;;19.10;29.54
72330;BME280;69154;52.076;5.110;2023-07-13T03:20:26;101426.91;;;18.93;29.68
72330;BME280;69154;52.076;5.110;2023-07-13T03:22:52;101429.05;;;18.30;30.88
72330;BME280;69154;52.076;5.110;2023-07-13T03:25:17;101425.24;;;17.88;29.97
72330;BME280;69154;52.076;5.110;2023-07-13T03:27:43;101430.66;;;18.19;30.85
72330;BME280;69154;52.076;5.110;2023-07-13T03:30:09;101434.98;;;17.39;31.73
72330;BME280;69154;52.076;5.110;2023-07-13T03:32:33;101441.27;;;17.91;31.40
72330;BME280;69154;52.076;5.110;2023-07-13T03:34:58;101445.38;;;17.70;31.91
72330;BME280;69154;52.076;5.110;2023-07-13T03:37:24;101445.07;;;17.93;31.90
72330;BME280;69154;52.076;5.110;2023-07-13T03:39:49;101446.38;;;18.43;32.08
72330;BME280;69154;52.076;5.110;2023-07-13T03:42:14;101446.97;;;17.62;32.92
72330;BME280;69154;52.076;5.110;2023-07-13T03:44:40;101449.95;;;17.86;32.85
72330;BME280;69154;52.076;5.110;2023-07-13T03:47:05;101450.27;;;17.36;33.43
72330;BME280;69154;52.076;5.110;2023-07-13T03:49:29;101448.63;;;17.30;33.50
72330;BME280;69154;52.076;5.110;2023-07-13T03:51:55;101450.96;;;17.75;33.43
72330;BME280;69154;52.076;5.110;2023-07-13T03:54:20;101453.85;;;16.25;34.55
72330;BME280;69154;52.076;5.110;2023-07-13T03:56:45;101450.38;;;16.61;35.28
72330;BME280;69154;52.076;5.110;2023-07-13T03:59:10;101452.98;;;16.44;35.11
72330;BME280;69154;52.076;5.110;2023-07-13T04:01:37;101458.15;;;16.86;35.27
72330;BME280;69154;52.076;5.110;2023-07-13T04:04:04;101460.34;;;16.92;35.08
72330;BME280;69154;52.076;5.110;2023-07-13T04:06:29;101468.87;;;16.93;34.58
72330;BME280;69154;52.076;5.110;2023-07-13T04:08:54;101469.75;;;16.53;35.46
72330;BME280;69154;52.076;5.110;2023-07-13T04:11:20;101472.75;;;16.83;34.94
72330;BME280;69154;52.076;5.110;2023-07-13T04:13:43;101467.88;;;17.93;34.54
72330;BME280;69154;52.076;5.110;2023-07-13T04:16:08;101473.16;;;17.04;34.52
72330;BME280;69154;52.076;5.110;2023-07-13T04:18:33;101472.75;;;17.21;34.52
72330;BME280;69154;52.076;5.110;2023-07-13T04:20:59;101477.28;;;17.81;34.43
72330;BME280;69154;52.076;5.110;2023-07-13T04:23:24;101473.82;;;16.73;35.26
72330;BME280;69154;52.076;5.110;2023-07-13T04:25:52;101476.57;;;17.58;35.74
72330;BME280;69154;52.076;5.110;2023-07-13T04:28:15;101480.13;;;17.13;35.41
72330;BME280;69154;52.076;5.110;2023-07-13T04:30:39;101480.71;;;17.12;36.11
72330;BME280;69154;52.076;5.110;2023-07-13T04:33:05;101484.63;;;17.41;35.90
72330;BME280;69154;52.076;5.110;2023-07-13T04:35:31;101488.58;;;17.45;35.34
72330;BME280;69154;52.076;5.110;2023-07-13T04:37:56;101488.14;;;17.85;35.01
72330;BME280;69154;52.076;5.110;2023-07-13T04:40:21;101488.70;;;17.68;34.51
72330;BME280;69154;52.076;5.110;2023-07-13T04:42:47;101487.30;;;17.36;35.49
72330;BME280;69154;52.076;5.110;2023-07-13T04:45:12;101488.25;;;17.11;35.80
72330;BME280;69154;52.076;5.110;2023-07-13T04:47:42;101488.17;;;18.13;35.29
72330;BME280;69154;52.076;5.110;2023-07-13T04:50:03;101490.02;;;18.51;34.12
72330;BME280;69154;52.076;5.110;2023-07-13T04:52:27;101489.53;;;17.49;34.67
72330;BME280;69154;52.076;5.110;2023-07-13T04:54:53;101490.66;;;17.72;34.57
72330;BME280;69154;52.076;5.110;2023-07-13T04:57:18;101489.09;;;17.14;34.82
72330;BME280;69154;52.076;5.110;2023-07-13T04:59:44;101491.65;;;17.91;35.33
72330;BME280;69154;52.076;5.110;2023-07-13T05:02:10;101493.44;;;15.60;37.01
72330;BME280;69154;52.076;5.110;2023-07-13T05:04:34;101496.57;;;17.37;36.25
72330;BME280;69154;52.076;5.110;2023-07-13T05:07:00;101494.25;;;17.88;35.67
72330;BME280;69154;52.076;5.110;2023-07-13T05:09:25;101497.06;;;17.76;35.27
72330;BME280;69154;52.076;5.110;2023-07-13T05:11:51;101503.92;;;17.45;35.59
72330;BME280;69154;52.076;5.110;2023-07-13T05:14:15;101503.30;;;17.94;35.49
72330;BME280;69154;52.076;5.110;2023-07-13T05:16:40;101507.12;;;18.19;35.42
72330;BME280;69154;52.076;5.110;2023-07-13T05:19:06;101504.78;;;17.97;34.98
72330;BME280;69154;52.076;5.110;2023-07-13T05:21:32;101509.25;;;18.51;34.53
72330;BME280;69154;52.076;5.110;2023-07-13T05:23:57;101510.01;;;19.39;33.27
72330;BME280;69154;52.076;5.110;2023-07-13T05:26:22;101511.83;;;18.99;33.83
72330;BME280;69154;52.076;5.110;2023-07-13T05:28:47;101513.18;;;19.54;33.43
72330;BME280;69154;52.076;5.110;2023-07-13T05:31:13;101514.05;;;17.82;33.52
72330;BME280;69154;52.076;5.110;2023-07-13T05:33:38;101518.45;;;19.60;32.73
72330;BME280;69154;52.076;5.110;2023-07-13T05:36:04;101519.04;;;19.44;33.10
72330;BME280;69154;52.076;5.110;2023-07-13T05:38:30;101520.21;;;19.30;33.21
72330;BME280;69154;52.076;5.110;2023-07-13T05:40:57;101526.30;;;19.46;32.94
72330;BME280;69154;52.076;5.110;2023-07-13T05:43:21;101526.68;;;19.13;32.72
72330;BME280;69154;52.076;5.110;2023-07-13T05:45:46;101521.48;;;19.03;33.29
72330;BME280;69154;52.076;5.110;2023-07-13T05:48:13;101528.96;;;17.15;35.13
72330;BME280;69154;52.076;5.110;2023-07-13T05:50:38;101530.03;;;18.16;35.13
72330;BME280;69154;52.076;5.110;2023-07-13T05:53:04;101530.17;;;17.76;35.28
72330;BME280;69154;52.076;5.110;2023-07-13T05:55:29;101533.05;;;17.87;35.49
72330;BME280;69154;52.076;5.110;2023-07-13T05:57:55;101533.86;;;18.63;35.95
72330;BME280;69154;52.076;5.110;2023-07-13T06:00:21;101535.49;;;18.10;34.88
72330;BME280;69154;52.076;5.110;2023-07-13T06:02:45;101539.69;;;19.58;34.41
72330;BME280;69154;52.076;5.110;2023-07-13T06:05:12;101543.41;;;17.23;36.39
72330;BME280;69154;52.076;5.110;2023-07-13T06:07:37;101551.82;;;19.71;34.44
72330;BME280;69154;52.076;5.110;2023-07-13T06:10:02;101553.44;;;18.52;34.63
72330;BME280;69154;52.076;5.110;2023-07-13T06:12:28;101553.64;;;18.04;35.71
72330;BME280;69154;52.076;5.110;2023-07-13T06:14:53;101561.57;;;18.78;35.29
72330;BME280;69154;52.076;5.110;2023-07-13T06:17:19;101556.69;;;17.99;35.12
72330;BME280;69154;52.076;5.110;2023-07-13T06:19:44;101559.23;;;18.97;35.19
72330;BME280;69154;52.076;5.110;2023-07-13T06:22:10;101559.01;;;18.14;35.02
72330;BME280;69154;52.076;5.110;2023-07-13T06:24:36;101566.62;;;19.89;33.75
72330;BME280;69154;52.076;5.110;2023-07-13T06:27:03;101571.72;;;20.22;33.40
72330;BME280;69154;52.076;5.110;2023-07-13T06:29:27;101575.21;;;20.47;31.90
72330;BME280;69154;52.076;5.110;2023-07-13T06:31:53;101576.66;;;20.12;32.46
72330;BME280;69154;52.076;5.110;2023-07-13T06:34:20;101581.10;;;20.64;32.35
72330;BME280;69154;52.076;5.110;2023-07-13T06:36:44;101572.92;;;21.84;31.09
72330;BME280;69154;52.076;5.110;2023-07-13T06:39:10;101570.39;;;21.60;30.96
72330;BME280;69154;52.076;5.110;2023-07-13T06:41:36;101577.60;;;20.80;31.62
72330;BME280;69154;52.076;5.110;2023-07-13T06:44:02;101580.35;;;20.51;31.64
72330;BME280;69154;52.076;5.110;2023-07-13T06:46:29;101575.07;;;18.90;33.18
72330;BME280;69154;52.076;5.110;2023-07-13T06:48:55;101581.96;;;19.99;32.58
72330;BME280;69154;52.076;5.110;2023-07-13T06:51:20;101589.85;;;19.71;33.73
72330;BME280;69154;52.076;5.110;2023-07-13T06:53:46;101594.17;;;17.97;34.77
72330;BME280;69154;52.076;5.110;2023-07-13T06:56:11;101591.46;;;18.36;35.19
72330;BME280;69154;52.076;5.110;2023-07-13T06:58:37;101599.14;;;19.13;34.88
72330;BME280;69154;52.076;5.110;2023-07-13T07:01:02;101599.04;;;18.50;35.81
72330;BME280;69154;52.076;5.110;2023-07-13T07:03:28;101599.80;;;18.95;34.88
72330;BME280;69154;52.076;5.110;2023-07-13T07:05:54;101601.30;;;19.32;35.28
72330;BME280;69154;52.076;5.110;2023-07-13T07:08:20;101600.55;;;19.21;34.73
72330;BME280;69154;52.076;5.110;2023-07-13T07:10:45;101598.94;;;18.22;35.62
72330;BME280;69154;52.076;5.110;2023-07-13T07:13:10;101602.03;;;18.84;35.89
72330;BME280;69154;52.076;5.110;2023-07-13T07:15:36;101602.07;;;18.62;36.20
72330;BME280;69154;52.076;5.110;2023-07-13T07:18:01;101604.86;;;18.81;36.32
72330;BME280;69154;52.076;5.110;2023-07-13T07:20:27;101609.33;;;17.81;36.22
72330;BME280;69154;52.076;5.110;2023-07-13T07:22:53;101608.23;;;19.51;35.25
72330;BME280;69154;52.076;5.110;2023-07-13T07:25:18;101606.72;;;18.27;35.02
72330;BME280;69154;52.076;5.110;2023-07-13T07:27:44;101610.81;;;19.65;34.60
72330;BME280;69154;52.076;5.110;2023-07-13T07:30:10;101603.97;;;19.23;35.20
72330;BME280;69154;52.076;5.110;2023-07-13T07:32:35;101603.08;;;19.28;36.14
72330;BME280;69154;52.076;5.110;2023-07-13T07:35:00;101606.16;;;20.62;34.18
72330;BME280;69154;52.076;5.110;2023-07-13T07:37:25;101606.06;;;19.77;33.71
72330;BME280;69154;52.076;5.110;2023-07-13T07:39:51;101609.88;;;20.76;33.69
72330;BME280;69154;52.076;5.110;2023-07-13T07:42:21;101605.80;;;20.04;33.22
72330;BME280;69154;52.076;5.110;2023-07-13T07:44:41;101607.28;;;19.30;35.85
72330;BME280;69154;52.076;5.110;2023-07-13T07:47:08;101607.29;;;19.50;36.43
72330;BME280;69154;52.076;5.110;2023-07-13T07:49:32;101600.22;;;17.73;36.73
72330;BME280;69154;52.076;5.110;2023-07-13T07:51:58;101612.24;;;18.26;37.26
72330;BME280;69154;52.076;5.110;2023-07-13T07:54:24;101614.41;;;17.73;38.12
72330;BME280;69154;52.076;5.110;2023-07-13T07:56:49;101607.37;;;17.38;39.34
72330;BME280;69154;52.076;5.110;2023-07-13T07:59:15;101607.00;;;18.33;36.99
72330;BME280;69154;52.076;5.110;2023-07-13T08:01:41;101605.67;;;19.69;36.21
72330;BME280;69154;52.076;5.110;2023-07-13T08:04:07;101603.80;;;20.33;33.94
72330;BME280;69154;52.076;5.110;2023-07-13T08:06:32;101595.43;;;19.51;33.92
72330;BME280;69154;52.076;5.110;2023-07-13T08:08:58;101600.06;;;20.45;32.96
72330;BME280;69154;52.076;5.110;2023-07-13T08:11:23;101609.15;;;21.84;32.19
72330;BME280;69154;52.076;5.110;2023-07-13T08:13:49;101610.68;;;21.97;30.76
72330;BME280;69154;52.076;5.110;2023-07-13T08:16:15;101612.33;;;21.98;29.74
72330;BME280;69154;52.076;5.110;2023-07-13T08:18:40;101615.21;;;19.32;32.08
72330;BME280;69154;52.076;5.110;2023-07-13T08:21:08;101624.66;;;20.84;30.27
72330;BME280;69154;52.076;5.110;2023-07-13T08:23:31;101620.62;;;20.42;29.68
72330;BME280;69154;52.076;5.110;2023-07-13T08:25:57;101629.90;;;18.43;31.62
72330;BME280;69154;52.076;5.110;2023-07-13T08:28:23;101633.89;;;16.83;34.80
72330;BME280;69154;52.076;5.110;2023-07-13T08:30:48;101630.47;;;16.67;38.89
72330;BME280;69154;52.076;5.110;2023-07-13T08:33:14;101620.20;;;17.24;36.98
72330;BME280;69154;52.076;5.110;2023-07-13T08:35:40;101631.22;;;18.63;35.04
72330;BME280;69154;52.076;5.110;2023-07-13T08:38:06;101636.48;;;18.09;34.46
72330;BME280;69154;52.076;5.110;2023-07-13T08:40:33;101636.14;;;19.53;33.21
72330;BME280;69154;52.076;5.110;2023-07-13T08:42:58;101631.41;;;19.69;32.93
72330;BME280;69154;52.076;5.110;2023-07-13T08:45:36;101629.85;;;19.56;33.31
72330;BME280;69154;52.076;5.110;2023-07-13T08:47:52;101630.07;;;20.37;31.38
72330;BME280;69154;52.076;5.110;2023-07-13T08:50:17;101625.97;;;19.24;32.91
72330;BME280;69154;52.076;5.110;2023-07-13T08:52:42;101627.44;;;19.42;32.47
72330;BME280;69154;52.076;5.110;2023-07-13T08:55:13;101623.47;;;19.40;32.07
72330;BME280;69154;52.076;5.110;2023-07-13T08:57:34;101621.14;;;19.54;32.13
72330;BME280;69154;52.076;5.110;2023-07-13T08:59:58;101621.21;;;19.55;32.58
72330;BME280;69154;52.076;5.110;2023-07-13T09:02:27;101620.85;;;18.53;33.10
72330;BME280;69154;52.076;5.110;2023-07-13T09:04:53;101623.05;;;19.84;33.38
72330;BME280;69154;52.076;5.110;2023-07-13T09:07:22;101632.11;;;20.46;32.24
72330;BME280;69154;52.076;5.110;2023-07-13T09:09:49;101634.84;;;21.92;31.82
72330;BME280;69154;52.076;5.110;2023-07-13T09:12:13;101627.56;;;21.92;31.43
72330;BME280;69154;52.076;5.110;2023-07-13T09:14:40;101621.66;;;19.89;31.37
72330;BME280;69154;52.076;5.110;2023-07-13T09:16:58;101617.35;;;19.89;32.93
72330;BME280;69154;52.076;5.110;2023-07-13T09:19:27;101614.33;;;19.33;32.12
72330;BME280;69154;52.076;5.110;2023-07-13T09:21:50;101623.92;;;19.45;31.63
72330;BME280;69154;52.076;5.110;2023-07-13T09:24:29;101633.12;;;20.13;33.13
72330;BME280;69154;52.076;5.110;2023-07-13T09:26:40;101642.81;;;18.47;33.33
72330;BME280;69154;52.076;5.110;2023-07-13T09:29:14;101662.47;;;17.95;35.46
72330;BME280;69154;52.076;5.110;2023-07-13T09:31:33;101669.28;;;16.77;36.60
72330;BME280;69154;52.076;5.110;2023-07-13T09:33:57;101667.41;;;16.64;37.33
72330;BME280;69154;52.076;5.110;2023-07-13T09:36:25;101661.39;;;16.85;37.32
72330;BME280;69154;52.076;5.110;2023-07-13T09:38:56;101660.86;;;18.44;36.11
72330;BME280;69154;52.076;5.110;2023-07-13T09:41:21;101666.90;;;18.35;35.19
72330;BME280;69154;52.076;5.110;2023-07-13T09:44:00;101665.03;;;17.16;36.09
72330;BME280;69154;52.076;5.110;2023-07-13T09:46:20;101666.48;;;19.15;34.55
72330;BME280;69154;52.076;5.110;2023-07-13T09:48:35;101665.31;;;17.77;35.80
72330;BME280;69154;52.076;5.110;2023-07-13T09:51:12;101661.76;;;20.05;34.05
72330;BME280;69154;52.076;5.110;2023-07-13T09:53:30;101667.34;;;21.17;33.08
72330;BME280;69154;52.076;5.110;2023-07-13T09:55:50;101663.93;;;24.71;28.55
72330;BME280;69154;52.076;5.110;2023-07-13T09:58:18;101665.05;;;26.98;26.39
72330;BME280;69154;52.076;5.110;2023-07-13T10:00:42;101668.35;;;30.01;24.65
72330;BME280;69154;52.076;5.110;2023-07-13T10:03:17;101671.97;;;29.92;21.46
72330;BME280;69154;52.076;5.110;2023-07-13T10:05:42;101670.51;;;26.54;23.30
72330;BME280;69154;52.076;5.110;2023-07-13T10:07:58;101673.25;;;27.53;23.24
72330;BME280;69154;52.076;5.110;2023-07-13T10:10:24;101672.39;;;21.78;26.64
72330;BME280;69154;52.076;5.110;2023-07-13T10:12:50;101680.12;;;20.45;29.52
72330;BME280;69154;52.076;5.110;2023-07-13T10:15:17;101682.83;;;18.65;30.90
72330;BME280;69154;52.076;5.110;2023-07-13T10:17:41;101684.31;;;19.21;31.21
72330;BME280;69154;52.076;5.110;2023-07-13T10:20:07;101685.92;;;18.16;33.49
72330;BME280;69154;52.076;5.110;2023-07-13T10:22:39;101692.62;;;18.33;34.30
72330;BME280;69154;52.076;5.110;2023-07-13T10:24:59;101695.02;;;19.52;32.70
72330;BME280;69154;52.076;5.110;2023-07-13T10:27:29;101692.37;;;19.50;31.19
72330;BME280;69154;52.076;5.110;2023-07-13T10:29:52;101696.82;;;20.69;30.38
72330;BME280;69154;52.076;5.110;2023-07-13T10:32:15;101697.81;;;20.64;30.60
72330;BME280;69154;52.076;5.110;2023-07-13T10:34:43;101699.19;;;23.03;28.77
72330;BME280;69154;52.076;5.110;2023-07-13T10:37:16;101695.21;;;26.70;26.81
72330;BME280;69154;52.076;5.110;2023-07-13T10:39:33;101691.41;;;24.22;24.63
72330;BME280;69154;52.076;5.110;2023-07-13T10:42:00;101693.41;;;24.59;25.15
72330;BME280;69154;52.076;5.110;2023-07-13T10:44:26;101699.79;;;26.98;23.25
72330;BME280;69154;52.076;5.110;2023-07-13T10:46:49;101693.89;;;30.37;21.10
72330;BME280;69154;52.076;5.110;2023-07-13T10:49:15;101699.55;;;31.14;20.69
72330;BME280;69154;52.076;5.110;2023-07-13T10:51:40;101701.04;;;28.95;20.49
72330;BME280;69154;52.076;5.110;2023-07-13T10:54:26;101705.48;;;32.53;19.75
72330;BME280;69154;52.076;5.110;2023-07-13T10:56:32;101702.60;;;32.65;18.18
72330;BME280;69154;52.076;5.110;2023-07-13T10:59:11;101698.53;;;32.21;18.79
72330;BME280;69154;52.076;5.110;2023-07-13T11:01:39;101696.00;;;26.97;20.29
72330;BME280;69154;52.076;5.110;2023-07-13T11:03:50;101694.37;;;26.74;21.93
72330;BME280;69154;52.076;5.110;2023-07-13T11:06:17;101699.32;;;28.18;21.44
72330;BME280;69154;52.076;5.110;2023-07-13T11:08:52;101701.49;;;27.66;21.28
72330;BME280;69154;52.076;5.110;2023-07-13T11:11:32;101697.95;;;24.09;24.40
72330;BME280;69154;52.076;5.110;2023-07-13T11:13:57;101703.61;;;25.21;25.10
72330;BME280;69154;52.076;5.110;2023-07-13T11:15:55;101704.28;;;22.10;26.43
72330;BME280;69154;52.076;5.110;2023-07-13T11:18:23;101711.92;;;21.40;27.24
72330;BME280;69154;52.076;5.110;2023-07-13T11:20:49;101711.73;;;20.87;28.30
72330;BME280;69154;52.076;5.110;2023-07-13T11:23:27;101711.20;;;20.83;28.08
72330;BME280;69154;52.076;5.110;2023-07-13T11:25:38;101712.68;;;21.49;27.25
72330;BME280;69154;52.076;5.110;2023-07-13T11:28:13;101714.77;;;21.35;27.66
72330;BME280;69154;52.076;5.110;2023-07-13T11:30:35;101714.49;;;20.62;29.00
72330;BME280;69154;52.076;5.110;2023-07-13T11:33:11;101712.39;;;19.98;29.44
72330;BME280;69154;52.076;5.110;2023-07-13T11:35:23;101719.33;;;19.27;31.39
72330;BME280;69154;52.076;5.110;2023-07-13T11:37:47;101717.37;;;21.88;30.58
72330;BME280;69154;52.076;5.110;2023-07-13T11:40:13;101712.71;;;21.70;28.61
72330;BME280;69154;52.076;5.110;2023-07-13T11:42:38;101706.95;;;23.24;28.01
72330;BME280;69154;52.076;5.110;2023-07-13T11:45:19;101706.16;;;26.22;24.52
72330;BME280;69154;52.076;5.110;2023-07-13T11:47:30;101709.67;;;28.25;22.65
72330;BME280;69154;52.076;5.110;2023-07-13T11:49:55;101707.43;;;29.27;20.66
72330;BME280;69154;52.076;5.110;2023-07-13T11:52:23;101706.88;;;31.76;18.59
72330;BME280;69154;52.076;5.110;2023-07-13T11:54:49;101721.82;;;28.44;19.68
72330;BME280;69154;52.076;5.110;2023-07-13T11:57:21;101716.81;;;30.32;19.51
72330;BME280;69154;52.076;5.110;2023-07-13T11:59:39;101716.88;;;29.48;17.32
72330;BME280;69154;52.076;5.110;2023-07-13T12:02:02;101726.42;;;27.44;19.83
72330;BME280;69154;52.076;5.110;2023-07-13T12:04:32;101725.76;;;25.07;21.19
72330;BME280;69154;52.076;5.110;2023-07-13T12:06:56;101729.90;;;26.73;21.20
72330;BME280;69154;52.076;5.110;2023-07-13T12:09:19;101721.38;;;26.65;19.95
72330;BME280;69154;52.076;5.110;2023-07-13T12:11:44;101713.50;;;28.66;18.57
72330;BME280;69154;52.076;5.110;2023-07-13T12:14:14;101715.72;;;27.73;19.15
72330;BME280;69154;52.076;5.110;2023-07-13T12:16:35;101714.52;;;26.03;20.18
72330;BME280;69154;52.076;5.110;2023-07-13T12:19:02;101713.99;;;26.05;21.17
72330;BME280;69154;52.076;5.110;2023-07-13T12:21:31;101727.09;;;27.70;18.98
72330;BME280;69154;52.076;5.110;2023-07-13T12:23:52;101711.85;;;29.40;18.24
72330;BME280;69154;52.076;5.110;2023-07-13T12:26:18;101708.61;;;30.00;17.82
72330;BME280;69154;52.076;5.110;2023-07-13T12:28:46;101724.91;;;32.19;15.93
72330;BME280;69154;52.076;5.110;2023-07-13T12:31:25;101718.22;;;30.34;16.25
72330;BME280;69154;52.076;5.110;2023-07-13T12:33:34;101719.32;;;30.79;16.82
72330;BME280;69154;52.076;5.110;2023-07-13T12:36:01;101731.51;;;31.32;16.65
72330;BME280;69154;52.076;5.110;2023-07-13T12:38:25;101728.25;;;32.80;15.90
72330;BME280;69154;52.076;5.110;2023-07-13T12:40:51;101727.41;;;31.39;15.36